首页
METAR-TAF:

METAR-TAF

机场 :

Santa Ana del Yacuma, 玻利维亚

纬度: 13-46S, 经度: 065-26W, 海拔: 144米

当前天气观测

该预报发布于54分钟前的17:00 UTC
风速6节,风向
温度 34°C
湿度 32%
气压 1017 hPa
能见度10公里或以上

METAR: SLSA 241700Z 36006KT 9999 NSC 34/15 Q1017

时间: 13:54 (17:54 UTC)


TAF: 丢失

超过4000个机场的气象观测和天气预报(METAR&TAF报告)。

可查询的气象台以黄色和红色小点在地图上表示。

将鼠标移到小点上方,可查看气象台名称。

然后点击查看天气观测和预报。

如需切换地图:点击带黑十字的绿色按钮放大地图;点击带横线的绿色按钮缩小地图;或者点击绿色箭头查看邻近地区的地图。


METAR-TAF: